Time;durP1;ratioP1;P1;durP2;ratioP2;P2;SDS_P1;SDS_P2;PMS_P1;PMS_P2;Temp;Humidity;BMP_temperature;BMP_pressure;BME280_temperature;BME280_humidity;BME280_pressure;Samples;Min_cycle;Max_cycle;Signal;HPM_P1;HPM_P2
2021/08/23 00:00:12;;;;;;;5.80;4.93;;;17.30;99.90;;;;;;2080515;28;20040;-70
2021/08/23 00:01:12;;;;;;;6.75;5.22;;;17.30;99.90;;;;;;2080643;28;20029;-73
2021/08/23 00:02:13;;;;;;;5.10;4.60;;;17.30;99.90;;;;;;2080324;28;20555;-73
2021/08/23 00:03:13;;;;;;;5.50;4.47;;;17.20;99.90;;;;;;2080542;28;20026;-71
2021/08/23 00:04:14;;;;;;;5.45;4.55;;;17.30;99.90;;;;;;2080622;28;20064;-73
2021/08/23 00:05:15;;;;;;;5.68;4.70;;;17.30;99.90;;;;;;2071869;28;20040;-74
2021/08/23 00:06:15;;;;;;;5.20;4.60;;;17.30;99.90;;;;;;2071899;28;20029;-74
2021/08/23 00:07:16;;;;;;;5.32;4.60;;;17.40;99.90;;;;;;2080192;28;20033;-73
2021/08/23 00:08:17;;;;;;;5.63;4.63;;;17.40;99.90;;;;;;2071791;28;20081;-73
2021/08/23 00:09:19;;;;;;;6.72;4.80;;;17.40;99.90;;;;;;2071408;28;20033;-73
2021/08/23 00:10:20;;;;;;;5.78;4.32;;;17.40;99.90;;;;;;2080493;28;20052;-73
2021/08/23 00:11:21;;;;;;;5.07;4.10;;;17.40;99.90;;;;;;2080541;28;20136;-72
2021/08/23 00:12:24;;;;;;;6.35;4.20;;;17.40;99.90;;;;;;2080542;28;20026;-74
2021/08/23 00:13:24;;;;;;;4.90;4.15;;;17.40;99.90;;;;;;2080383;28;20021;-73
2021/08/23 00:14:25;;;;;;;4.90;4.38;;;17.30;99.90;;;;;;2080447;28;20032;-72
2021/08/23 00:15:26;;;;;;;5.45;4.32;;;17.40;99.90;;;;;;2080548;28;20026;-72
2021/08/23 00:16:27;;;;;;;4.55;4.10;;;17.40;99.90;;;;;;2080550;28;20083;-71
2021/08/23 00:17:27;;;;;;;4.88;4.00;;;17.40;99.90;;;;;;2071337;28;20041;-70
2021/08/23 00:18:28;;;;;;;4.97;4.15;;;17.40;99.90;;;;;;2071834;28;20178;-71
2021/08/23 00:19:29;;;;;;;4.50;4.03;;;17.40;99.90;;;;;;2071600;28;20117;-72
2021/08/23 00:20:42;;;;;;;4.18;3.78;;;17.40;99.90;;;;;;2071619;28;20034;-71
2021/08/23 00:21:44;;;;;;;5.03;4.03;;;17.40;99.90;;;;;;2080335;28;20384;-72
2021/08/23 00:22:48;;;;;;;4.30;3.55;;;17.40;99.90;;;;;;2080324;28;20048;-71
2021/08/23 00:23:52;;;;;;;5.00;4.13;;;17.40;99.90;;;;;;2080457;28;20033;-71
2021/08/23 00:24:52;;;;;;;4.57;4.10;;;17.40;99.90;;;;;;2080283;28;20025;-69
2021/08/23 00:25:53;;;;;;;5.25;4.00;;;17.40;99.90;;;;;;2071802;28;20030;-71
2021/08/23 00:26:57;;;;;;;5.10;4.13;;;17.40;99.90;;;;;;2071686;28;20117;-70
2021/08/23 00:27:58;;;;;;;4.40;3.80;;;17.50;99.90;;;;;;2079998;28;20033;-70
2021/08/23 00:28:58;;;;;;;4.88;4.10;;;17.50;99.90;;;;;;2080405;28;20030;-70
2021/08/23 00:29:59;;;;;;;4.65;4.00;;;17.40;99.90;;;;;;2080693;28;20446;-71
2021/08/23 00:31:00;;;;;;;4.78;4.20;;;17.40;99.90;;;;;;2071649;28;20453;-70
2021/08/23 00:32:00;;;;;;;4.65;4.00;;;17.50;99.90;;;;;;2071666;28;20105;-71
2021/08/23 00:33:01;;;;;;;6.18;4.00;;;17.50;99.90;;;;;;2071837;28;20018;-71
2021/08/23 00:34:02;;;;;;;5.32;4.30;;;17.50;99.90;;;;;;2071672;28;20030;-71
2021/08/23 00:35:03;;;;;;;4.93;4.03;;;17.50;99.90;;;;;;2071788;28;20568;-71
2021/08/23 00:36:04;;;;;;;5.35;4.30;;;17.50;99.90;;;;;;2080349;28;20022;-71
2021/08/23 00:37:05;;;;;;;5.50;4.50;;;17.50;99.90;;;;;;2071429;28;20061;-70
2021/08/23 00:38:07;;;;;;;5.47;4.47;;;17.50;99.90;;;;;;2071217;28;20489;-70
2021/08/23 00:39:09;;;;;;;5.25;4.13;;;17.40;99.90;;;;;;2080079;28;20040;-69
2021/08/23 00:40:10;;;;;;;4.78;4.22;;;17.50;99.90;;;;;;2071656;28;20037;-69
2021/08/23 00:41:11;;;;;;;5.70;4.70;;;17.50;99.90;;;;;;2071743;28;20109;-69
2021/08/23 00:42:12;;;;;;;5.43;4.40;;;17.50;99.90;;;;;;2080366;28;20056;-71
2021/08/23 00:43:12;;;;;;;5.18;4.15;;;17.40;99.90;;;;;;2080386;28;20115;-71
2021/08/23 00:44:13;;;;;;;5.53;4.45;;;17.40;99.90;;;;;;2080371;28;20626;-72
2021/08/23 00:45:13;;;;;;;4.95;4.38;;;17.40;99.90;;;;;;2080469;28;20106;-70
2021/08/23 00:46:14;;;;;;;5.63;4.25;;;17.50;99.90;;;;;;2080417;28;20495;-70
2021/08/23 00:47:15;;;;;;;5.22;4.38;;;17.40;99.90;;;;;;2080002;28;20076;-70
2021/08/23 00:48:15;;;;;;;5.70;4.15;;;17.40;99.90;;;;;;2071469;28;20030;-70
2021/08/23 00:49:16;;;;;;;5.22;4.22;;;17.40;99.90;;;;;;2063178;28;20027;-71
2021/08/23 00:50:16;;;;;;;5.00;4.50;;;17.40;99.90;;;;;;2071426;28;20033;-71
2021/08/23 00:51:18;;;;;;;5.93;4.60;;;17.40;99.90;;;;;;2080415;28;20018;-71
2021/08/23 00:52:19;;;;;;;5.85;4.60;;;17.40;99.90;;;;;;2080382;28;20474;-69
2021/08/23 00:53:19;;;;;;;4.78;4.28;;;17.40;99.90;;;;;;2080485;28;20033;-69
2021/08/23 00:54:20;;;;;;;6.03;5.20;;;17.40;99.90;;;;;;2071590;28;20511;-71
2021/08/23 00:55:21;;;;;;;7.03;5.05;;;17.40;99.90;;;;;;2071625;28;20030;-71
2021/08/23 00:56:22;;;;;;;5.90;4.93;;;17.40;99.90;;;;;;2071566;28;20054;-71
2021/08/23 00:57:23;;;;;;;5.25;4.72;;;17.40;99.90;;;;;;2070924;28;20058;-71
2021/08/23 00:58:24;;;;;;;5.72;4.65;;;17.40;99.90;;;;;;2071624;28;20026;-72
2021/08/23 00:59:31;;;;;;;5.68;5.07;;;17.40;99.90;;;;;;2063147;28;20046;-70
2021/08/23 01:00:34;;;;;;;5.38;4.80;;;17.40;99.90;;;;;;2071521;28;20109;-70
2021/08/23 01:02:05;;;;;;;5.55;5.05;;;17.40;99.90;;;;;;2071949;28;20108;-71
2021/08/23 01:03:27;;;;;;;;;;;17.40;99.90;;;;;;2080789;28;20445;-70
2021/08/23 01:04:27;;;;;;;7.20;5.50;;;17.40;99.90;;;;;;2080282;28;19974;-72
2021/08/23 01:05:32;;;;;;;7.63;5.38;;;17.30;99.90;;;;;;2080251;28;20033;-72
2021/08/23 01:06:33;;;;;;;6.60;5.65;;;17.30;99.90;;;;;;2080480;28;20461;-71
2021/08/23 01:07:48;;;;;;;6.88;5.35;;;17.30;99.90;;;;;;2079830;28;20030;-72
2021/08/23 01:08:50;;;;;;;6.72;5.20;;;17.30;99.90;;;;;;2080042;28;20025;-71
2021/08/23 01:10:06;;;;;;;5.88;5.28;;;17.30;99.90;;;;;;2071312;28;20735;-72
2021/08/23 01:11:16;;;;;;;5.80;5.20;;;17.30;99.90;;;;;;2075514;28;20098;-72
2021/08/23 01:12:17;;;;;;;6.00;5.40;;;17.20;99.90;;;;;;2077180;28;20029;-72
2021/08/23 01:13:20;;;;;;;6.43;5.20;;;17.30;99.90;;;;;;2086778;28;20362;-74
2021/08/23 01:14:21;;;;;;;6.03;5.28;;;17.30;99.90;;;;;;2080799;28;20493;-70
2021/08/23 01:15:22;;;;;;;5.40;4.90;;;17.30;99.90;;;;;;2080620;28;20112;-70
2021/08/23 01:16:22;;;;;;;5.70;5.00;;;17.30;99.90;;;;;;2080561;28;20029;-71
2021/08/23 01:17:23;;;;;;;5.70;5.10;;;17.30;99.90;;;;;;2071074;28;20029;-71
2021/08/23 01:18:24;;;;;;;5.82;5.15;;;17.30;99.90;;;;;;2071599;28;20371;-70
2021/08/23 01:19:24;;;;;;;6.93;5.00;;;17.30;99.90;;;;;;2071375;28;20026;-71
2021/08/23 01:20:25;;;;;;;6.45;5.03;;;17.30;99.90;;;;;;2080002;28;20091;-72
2021/08/23 01:21:28;;;;;;;5.20;4.70;;;17.30;99.90;;;;;;2080405;28;20117;-71
2021/08/23 01:22:34;;;;;;;5.95;5.25;;;17.20;99.90;;;;;;2080360;28;20021;-71
2021/08/23 01:23:37;;;;;;;5.60;5.00;;;17.20;99.90;;;;;;2071454;28;20026;-73
2021/08/23 01:24:39;;;;;;;7.50;5.60;;;17.30;99.90;;;;;;2071720;28;20548;-70
2021/08/23 01:25:42;;;;;;;6.18;5.00;;;17.30;99.90;;;;;;2080211;28;20061;-73
2021/08/23 01:26:46;;;;;;;6.97;5.43;;;17.30;99.90;;;;;;2071510;28;20030;-73
2021/08/23 01:28:06;;;;;;;6.03;5.35;;;17.20;99.90;;;;;;2071297;28;20089;-71
2021/08/23 01:29:14;;;;;;;5.82;5.13;;;17.20;99.90;;;;;;2071250;28;20018;-73
2021/08/23 01:30:16;;;;;;;8.07;5.90;;;17.30;99.90;;;;;;2071308;28;20038;-73
2021/08/23 01:31:34;;;;;;;5.82;5.22;;;17.20;99.90;;;;;;2071523;28;20535;-72
2021/08/23 01:32:35;;;;;;;6.80;5.65;;;17.20;99.90;;;;;;2080158;28;20033;-72
2021/08/23 01:33:36;;;;;;;7.70;5.75;;;17.20;99.90;;;;;;2071384;28;20089;-73
2021/08/23 01:34:38;;;;;;;6.20;5.47;;;17.20;99.90;;;;;;2072504;28;20030;-72
2021/08/23 01:35:39;;;;;;;6.22;5.55;;;17.20;99.90;;;;;;2081808;28;20482;-73
2021/08/23 01:36:39;;;;;;;7.13;5.70;;;17.20;99.90;;;;;;2081707;28;20036;-72
2021/08/23 01:37:40;;;;;;;6.13;5.50;;;17.20;99.90;;;;;;2081188;28;20108;-73
2021/08/23 01:38:41;;;;;;;8.25;5.60;;;17.20;99.90;;;;;;2081370;28;20037;-73
2021/08/23 01:39:42;;;;;;;7.95;5.72;;;17.20;99.90;;;;;;2081608;28;20033;-72
2021/08/23 01:40:43;;;;;;;5.95;5.32;;;17.10;99.90;;;;;;2081424;28;20040;-73
2021/08/23 01:41:43;;;;;;;6.00;5.25;;;17.10;99.90;;;;;;2072822;28;20080;-72
2021/08/23 01:42:44;;;;;;;6.53;5.10;;;17.10;99.90;;;;;;2073020;28;20121;-73
2021/08/23 01:43:45;;;;;;;5.72;5.15;;;17.10;99.90;;;;;;2081789;28;20030;-73
2021/08/23 01:44:45;;;;;;;6.78;5.05;;;17.10;99.90;;;;;;2081632;28;20048;-73
2021/08/23 01:45:46;;;;;;;5.70;4.95;;;17.10;99.90;;;;;;2081727;28;20542;-72
2021/08/23 01:46:46;;;;;;;6.95;5.90;;;17.10;99.90;;;;;;2081724;28;20087;-73
2021/08/23 01:47:47;;;;;;;6.82;5.20;;;17.10;99.90;;;;;;2072311;28;20117;-73
2021/08/23 01:48:48;;;;;;;6.00;5.28;;;17.10;99.90;;;;;;2072363;28;20568;-72
2021/08/23 01:49:49;;;;;;;5.97;5.32;;;17.10;99.90;;;;;;2081526;28;20032;-73
2021/08/23 01:50:49;;;;;;;6.25;5.55;;;17.10;99.90;;;;;;2072676;28;20034;-74
2021/08/23 01:51:50;;;;;;;5.72;4.97;;;17.10;99.90;;;;;;2072899;28;20034;-72
2021/08/23 01:52:50;;;;;;;6.15;5.22;;;17.10;99.90;;;;;;2081649;28;20507;-72
2021/08/23 01:53:51;;;;;;;6.53;5.18;;;17.10;99.90;;;;;;2081802;28;20444;-73
2021/08/23 01:54:51;;;;;;;5.88;5.22;;;17.10;99.90;;;;;;2081635;28;20435;-73
2021/08/23 01:55:52;;;;;;;7.45;5.30;;;17.10;99.90;;;;;;2081638;28;20369;-73
2021/08/23 01:56:53;;;;;;;6.32;5.20;;;17.10;99.90;;;;;;2081604;28;20025;-72
2021/08/23 01:57:53;;;;;;;6.65;4.95;;;17.10;99.90;;;;;;2072298;28;20708;-73
2021/08/23 01:58:54;;;;;;;6.07;5.35;;;17.10;99.90;;;;;;2072454;28;20041;-72
2021/08/23 01:59:55;;;;;;;6.45;5.40;;;17.10;99.90;;;;;;2081628;28;20029;-72
2021/08/23 02:00:55;;;;;;;7.28;6.10;;;17.10;99.90;;;;;;2081374;28;20105;-73
2021/08/23 02:01:56;;;;;;;6.35;5.70;;;17.10;99.90;;;;;;2081676;28;20033;-71
2021/08/23 02:02:56;;;;;;;8.10;5.78;;;17.10;99.90;;;;;;2081746;28;20030;-72
2021/08/23 02:03:57;;;;;;;8.43;6.28;;;17.10;99.90;;;;;;2081624;28;20041;-73
2021/08/23 02:04:58;;;;;;;6.72;5.95;;;17.00;99.90;;;;;;2073054;28;20121;-72
2021/08/23 02:05:59;;;;;;;6.93;6.15;;;17.00;99.90;;;;;;2064887;28;20030;-73
2021/08/23 02:06:59;;;;;;;7.30;6.30;;;17.00;99.90;;;;;;2073018;28;20105;-73
2021/08/23 02:08:01;;;;;;;9.23;6.63;;;17.00;99.90;;;;;;2081245;28;20033;-71
2021/08/23 02:09:03;;;;;;;8.55;6.82;;;17.00;99.90;;;;;;2081323;28;20498;-71
2021/08/23 02:10:05;;;;;;;9.60;6.82;;;17.00;99.90;;;;;;2081493;28;20030;-71
2021/08/23 02:11:06;;;;;;;10.10;6.75;;;17.00;99.90;;;;;;2081445;28;20033;-71
2021/08/23 02:12:06;;;;;;;9.88;7.05;;;17.00;99.90;;;;;;2081702;28;20044;-71
2021/08/23 02:13:07;;;;;;;10.57;7.13;;;16.90;99.90;;;;;;2081517;28;20029;-71
2021/08/23 02:14:08;;;;;;;9.45;7.13;;;16.90;99.90;;;;;;2081568;28;20033;-71
2021/08/23 02:15:09;;;;;;;8.45;7.28;;;16.90;99.90;;;;;;2081296;28;20396;-71
2021/08/23 02:16:10;;;;;;;8.98;7.50;;;16.90;99.90;;;;;;2081472;28;20088;-71
2021/08/23 02:17:11;;;;;;;8.32;7.30;;;16.90;99.90;;;;;;2080938;28;20026;-71
2021/08/23 02:18:11;;;;;;;9.35;7.00;;;16.90;99.90;;;;;;2081458;28;20497;-71
2021/08/23 02:19:12;;;;;;;8.63;6.90;;;16.90;99.90;;;;;;2083969;28;20424;-72
2021/08/23 02:20:13;;;;;;;8.40;6.80;;;16.90;99.90;;;;;;2090384;28;20500;-71
2021/08/23 02:21:14;;;;;;;8.32;7.35;;;16.90;99.90;;;;;;2090244;28;20101;-72
2021/08/23 02:22:14;;;;;;;9.25;7.25;;;16.90;99.90;;;;;;2089086;28;20567;-72
2021/08/23 02:23:15;;;;;;;8.00;6.95;;;16.90;99.90;;;;;;2085525;28;20736;-72
2021/08/23 02:24:16;;;;;;;10.40;8.10;;;16.90;99.90;;;;;;2087464;28;20037;-73
2021/08/23 02:25:22;;;;;;;8.73;7.30;;;16.90;99.90;;;;;;2079906;28;20017;-72
2021/08/23 02:26:22;;;;;;;9.27;6.90;;;16.90;99.90;;;;;;2074373;28;20484;-72
2021/08/23 02:27:23;;;;;;;11.52;8.63;;;16.90;99.90;;;;;;2076977;28;20034;-71
2021/08/23 02:28:24;;;;;;;10.65;8.32;;;16.90;99.90;;;;;;2083030;28;20039;-71
2021/08/23 02:29:24;;;;;;;10.40;8.60;;;16.80;99.90;;;;;;2082438;28;20116;-71
2021/08/23 02:30:25;;;;;;;10.95;9.50;;;16.80;99.90;;;;;;2082187;28;20055;-71
2021/08/23 02:31:26;;;;;;;12.50;9.40;;;16.80;99.90;;;;;;2081871;28;20040;-71
2021/08/23 02:32:26;;;;;;;11.73;9.20;;;16.80;99.90;;;;;;2081770;28;20053;-71
2021/08/23 02:33:27;;;;;;;9.88;8.77;;;16.80;99.90;;;;;;2081483;28;20055;-70
2021/08/23 02:34:27;;;;;;;9.95;8.80;;;16.80;99.90;;;;;;2081697;28;20029;-70
2021/08/23 02:35:28;;;;;;;12.02;9.40;;;16.80;99.90;;;;;;2081504;28;20021;-70
2021/08/23 02:36:29;;;;;;;11.48;9.10;;;16.80;99.90;;;;;;2081436;28;20029;-71
2021/08/23 02:37:30;;;;;;;10.43;8.80;;;16.80;99.90;;;;;;2081041;28;20550;-71
2021/08/23 02:38:31;;;;;;;11.55;9.70;;;16.80;99.90;;;;;;2081315;28;20052;-71
2021/08/23 02:39:32;;;;;;;10.80;9.30;;;16.80;99.90;;;;;;2072291;28;20121;-71
2021/08/23 02:40:36;;;;;;;10.52;8.80;;;16.80;99.90;;;;;;2072949;28;20028;-71
2021/08/23 02:41:37;;;;;;;13.05;9.60;;;16.80;99.90;;;;;;2072535;28;20033;-71
2021/08/23 02:42:38;;;;;;;10.18;9.18;;;16.80;99.90;;;;;;2072547;28;20053;-71
2021/08/23 02:43:38;;;;;;;12.95;9.65;;;16.80;99.90;;;;;;2081177;28;20034;-70
2021/08/23 02:44:39;;;;;;;11.00;9.32;;;16.80;99.90;;;;;;2081306;28;20032;-71
2021/08/23 02:45:39;;;;;;;9.88;8.88;;;16.80;99.90;;;;;;2080945;28;20030;-71
2021/08/23 02:46:40;;;;;;;10.00;8.70;;;16.80;99.90;;;;;;2081389;28;20029;-71
2021/08/23 02:47:40;;;;;;;10.40;9.00;;;16.80;99.90;;;;;;2080467;28;20709;-70
2021/08/23 02:48:41;;;;;;;10.10;8.77;;;16.80;99.90;;;;;;2080838;28;20083;-71
2021/08/23 02:49:42;;;;;;;9.38;8.45;;;16.80;99.90;;;;;;2081097;28;20026;-71
2021/08/23 02:50:42;;;;;;;9.70;8.50;;;16.80;99.90;;;;;;2081103;28;20029;-71
2021/08/23 02:51:47;;;;;;;8.73;7.82;;;16.80;99.90;;;;;;2081161;28;20037;-71
2021/08/23 02:52:47;;;;;;;9.48;7.93;;;16.80;99.90;;;;;;2081270;28;20739;-71
2021/08/23 02:53:48;;;;;;;9.30;7.93;;;16.90;99.90;;;;;;2081074;28;20040;-70
2021/08/23 02:54:48;;;;;;;10.13;8.07;;;16.90;99.90;;;;;;2081046;28;20039;-71
2021/08/23 02:55:49;;;;;;;8.50;7.60;;;16.80;99.90;;;;;;2072248;28;20041;-71
2021/08/23 02:56:49;;;;;;;8.93;7.93;;;16.90;99.90;;;;;;2072455;28;20029;-71
2021/08/23 02:57:50;;;;;;;9.70;8.18;;;16.80;99.90;;;;;;2080488;28;20045;-71
2021/08/23 02:58:50;;;;;;;9.55;8.25;;;16.80;99.90;;;;;;2072127;28;20551;-71
2021/08/23 02:59:52;;;;;;;9.38;8.32;;;16.80;99.90;;;;;;2072402;28;20022;-71
2021/08/23 03:00:52;;;;;;;10.85;7.95;;;16.80;99.90;;;;;;2081110;28;20056;-71
2021/08/23 03:01:53;;;;;;;9.05;7.95;;;16.80;99.90;;;;;;2081122;28;20377;-71
2021/08/23 03:02:53;;;;;;;9.05;7.95;;;16.80;99.90;;;;;;2080978;28;20033;-71
2021/08/23 03:03:54;;;;;;;11.07;8.00;;;16.80;99.90;;;;;;2072274;28;20026;-71
2021/08/23 03:04:54;;;;;;;9.95;7.70;;;16.80;99.90;;;;;;2072214;28;20153;-71
2021/08/23 03:05:55;;;;;;;9.38;8.38;;;16.80;99.90;;;;;;2081102;28;20092;-72
2021/08/23 03:06:56;;;;;;;8.38;7.30;;;16.70;99.90;;;;;;2081084;28;20030;-72
2021/08/23 03:07:56;;;;;;;7.85;6.97;;;16.70;99.90;;;;;;2080538;28;20071;-72
2021/08/23 03:08:57;;;;;;;8.57;6.80;;;16.70;99.90;;;;;;2071888;28;20137;-71
2021/08/23 03:09:57;;;;;;;7.45;6.53;;;16.80;99.90;;;;;;2072243;28;20053;-72
2021/08/23 03:11:14;;;;;;;9.95;7.63;;;16.80;99.90;;;;;;2081120;28;20025;-70
2021/08/23 03:12:16;;;;;;;8.73;7.25;;;16.80;99.90;;;;;;2080992;28;20034;-71
2021/08/23 03:13:17;;;;;;;7.47;6.57;;;16.80;99.90;;;;;;2080979;28;20080;-71
2021/08/23 03:14:17;;;;;;;7.75;6.95;;;16.80;99.90;;;;;;2081081;28;20075;-70
2021/08/23 03:15:19;;;;;;;6.88;6.18;;;16.70;99.90;;;;;;2081015;28;20151;-70
2021/08/23 03:16:20;;;;;;;8.35;7.10;;;16.80;99.90;;;;;;2072151;28;20030;-70
2021/08/23 03:17:21;;;;;;;9.73;7.15;;;16.80;99.90;;;;;;2071793;28;20517;-71
2021/08/23 03:18:21;;;;;;;7.43;6.50;;;16.80;99.90;;;;;;2080920;28;20567;-70
2021/08/23 03:19:22;;;;;;;7.10;6.40;;;16.70;99.90;;;;;;2080654;28;20115;-70
2021/08/23 03:20:22;;;;;;;7.53;6.55;;;16.80;99.90;;;;;;2080866;28;20029;-71
2021/08/23 03:21:23;;;;;;;7.90;6.30;;;16.70;99.90;;;;;;2080947;28;20127;-71
2021/08/23 03:22:24;;;;;;;7.40;6.55;;;16.80;99.90;;;;;;2081034;28;20040;-71
2021/08/23 03:23:25;;;;;;;7.78;6.30;;;16.80;99.90;;;;;;2080683;28;20029;-70
2021/08/23 03:24:25;;;;;;;7.07;6.38;;;16.80;99.90;;;;;;2080769;28;20026;-71
2021/08/23 03:25:26;;;;;;;6.63;5.90;;;16.80;99.90;;;;;;2080973;28;20030;-71
2021/08/23 03:26:27;;;;;;;7.13;6.10;;;16.80;99.90;;;;;;2080953;28;20033;-71
2021/08/23 03:27:27;;;;;;;9.35;6.55;;;16.80;99.90;;;;;;2071728;28;20053;-71
2021/08/23 03:28:28;;;;;;;10.95;7.10;;;16.80;99.90;;;;;;2071982;28;20037;-71
2021/08/23 03:29:29;;;;;;;8.65;7.00;;;16.70;99.90;;;;;;2080640;28;20040;-71
2021/08/23 03:30:29;;;;;;;7.20;6.18;;;16.80;99.90;;;;;;2080836;28;20441;-71
2021/08/23 03:31:31;;;;;;;7.90;6.57;;;16.80;99.90;;;;;;2080894;28;20464;-71
2021/08/23 03:32:31;;;;;;;7.45;6.65;;;16.80;99.90;;;;;;2080974;28;20033;-71
2021/08/23 03:33:35;;;;;;;6.63;6.03;;;16.80;99.90;;;;;;2081055;28;20476;-71
2021/08/23 03:34:36;;;;;;;7.78;6.30;;;16.80;99.90;;;;;;2081171;28;20071;-71
2021/08/23 03:35:36;;;;;;;8.27;6.20;;;16.90;99.90;;;;;;2072837;28;20037;-71
2021/08/23 03:36:37;;;;;;;7.00;6.30;;;16.90;99.90;;;;;;2073306;28;20458;-71
2021/08/23 03:37:37;;;;;;;7.07;6.20;;;16.80;99.90;;;;;;2081085;28;20517;-71
2021/08/23 03:38:38;;;;;;;7.90;6.80;;;16.80;99.90;;;;;;2080689;28;20048;-71
2021/08/23 03:39:39;;;;;;;7.95;6.35;;;16.90;99.90;;;;;;2071997;28;20029;-71
2021/08/23 03:40:40;;;;;;;6.47;5.80;;;16.80;99.90;;;;;;2071990;28;20037;-71
2021/08/23 03:41:41;;;;;;;8.65;6.32;;;16.80;99.90;;;;;;2080742;28;20033;-71
2021/08/23 03:42:41;;;;;;;7.88;6.25;;;16.90;99.90;;;;;;2080706;28;20546;-71
2021/08/23 03:43:42;;;;;;;7.60;6.20;;;16.90;99.90;;;;;;2080726;28;20021;-71
2021/08/23 03:44:43;;;;;;;7.15;5.80;;;16.80;99.90;;;;;;2080797;28;20034;-71
2021/08/23 03:45:44;;;;;;;7.53;5.95;;;16.80;99.90;;;;;;2080798;28;20037;-71
2021/08/23 03:46:44;;;;;;;6.55;5.78;;;16.90;99.90;;;;;;2080786;28;20070;-71
2021/08/23 03:47:47;;;;;;;6.93;5.70;;;16.80;99.90;;;;;;2080191;28;20025;-71
2021/08/23 03:48:47;;;;;;;6.10;5.50;;;16.90;99.90;;;;;;2080435;28;20093;-71
2021/08/23 03:49:48;;;;;;;6.95;5.93;;;16.90;99.90;;;;;;2080423;28;20434;-70
2021/08/23 03:50:50;;;;;;;6.43;5.78;;;16.80;99.90;;;;;;2080507;28;20544;-71
2021/08/23 03:51:50;;;;;;;6.57;5.88;;;16.90;99.90;;;;;;2080664;28;20025;-71
2021/08/23 03:52:51;;;;;;;6.15;5.55;;;16.90;99.90;;;;;;2080527;28;20030;-71
2021/08/23 03:53:51;;;;;;;6.30;5.38;;;16.90;99.90;;;;;;2080709;28;20026;-71
2021/08/23 03:54:52;;;;;;;6.25;5.65;;;16.90;99.90;;;;;;2080658;28;20021;-70
2021/08/23 03:55:53;;;;;;;6.03;5.25;;;16.90;99.90;;;;;;2080675;28;20112;-71
2021/08/23 03:56:53;;;;;;;6.75;6.05;;;16.90;99.90;;;;;;2079929;28;20099;-70
2021/08/23 03:57:54;;;;;;;6.40;5.53;;;16.90;99.90;;;;;;2071132;28;20037;-71
2021/08/23 03:58:55;;;;;;;5.90;5.00;;;16.80;99.90;;;;;;2072513;28;21000;-71
2021/08/23 03:59:55;;;;;;;5.28;4.78;;;16.90;99.90;;;;;;2081312;28;20030;-71
2021/08/23 04:00:58;;;;;;;5.63;4.82;;;16.80;99.90;;;;;;2081379;28;20037;-71
2021/08/23 04:01:59;;;;;;;5.40;4.90;;;16.80;99.90;;;;;;2071999;28;20041;-71
2021/08/23 04:02:59;;;;;;;5.47;4.80;;;16.90;99.90;;;;;;2071822;28;20034;-71
2021/08/23 04:04:00;;;;;;;5.32;4.80;;;16.90;99.90;;;;;;2080614;28;20547;-71
2021/08/23 04:05:01;;;;;;;5.32;4.82;;;16.90;99.90;;;;;;2080569;28;20057;-71
2021/08/23 04:06:02;;;;;;;5.20;4.50;;;16.90;99.90;;;;;;2080320;28;20108;-71
2021/08/23 04:07:02;;;;;;;4.72;3.97;;;16.90;99.90;;;;;;2080584;28;20040;-71
2021/08/23 04:08:03;;;;;;;5.70;3.97;;;16.90;99.90;;;;;;2080247;28;20033;-71
2021/08/23 04:09:04;;;;;;;5.05;4.22;;;16.90;99.90;;;;;;2080447;28;20033;-71
2021/08/23 04:10:05;;;;;;;4.72;3.92;;;17.00;99.90;;;;;;2080740;28;20477;-72
2021/08/23 04:11:10;;;;;;;4.30;3.90;;;17.00;99.90;;;;;;2081000;28;20091;-71
2021/08/23 04:12:10;;;;;;;4.15;3.75;;;17.00;99.90;;;;;;2080677;28;20035;-71
2021/08/23 04:13:11;;;;;;;4.32;3.92;;;17.00;99.90;;;;;;2080501;28;20034;-71
2021/08/23 04:14:12;;;;;;;4.60;4.05;;;17.00;99.90;;;;;;2080461;28;20072;-71
2021/08/23 04:15:13;;;;;;;4.15;3.75;;;17.00;99.90;;;;;;2080451;28;20104;-71
2021/08/23 04:16:18;;;;;;;4.20;3.80;;;17.00;99.90;;;;;;2071567;28;20115;-71
2021/08/23 04:17:19;;;;;;;4.43;3.83;;;17.00;99.90;;;;;;2072077;28;20112;-72
2021/08/23 04:18:19;;;;;;;4.10;3.70;;;17.00;99.90;;;;;;2080574;28;20030;-72
2021/08/23 04:19:20;;;;;;;3.83;3.40;;;17.00;99.90;;;;;;2080369;28;20047;-72
2021/08/23 04:20:20;;;;;;;3.90;3.50;;;17.00;99.90;;;;;;2080384;28;20044;-72
2021/08/23 04:21:21;;;;;;;3.97;3.22;;;17.00;99.90;;;;;;2080620;28;20038;-72
2021/08/23 04:22:22;;;;;;;3.85;3.42;;;17.00;99.90;;;;;;2080583;28;20120;-72
2021/08/23 04:23:22;;;;;;;3.80;3.40;;;17.00;99.90;;;;;;2080676;28;20034;-72
2021/08/23 04:24:23;;;;;;;3.63;3.13;;;17.00;99.90;;;;;;2080592;28;20033;-72
2021/08/23 04:25:23;;;;;;;3.97;3.25;;;16.90;99.90;;;;;;2071817;28;20044;-72
2021/08/23 04:26:24;;;;;;;3.40;3.10;;;16.90;99.90;;;;;;2071871;28;20041;-72
2021/08/23 04:27:25;;;;;;;3.92;3.30;;;16.90;99.90;;;;;;2070819;28;20029;-72
2021/08/23 04:28:25;;;;;;;3.55;2.90;;;16.90;99.90;;;;;;2071634;28;20037;-72
2021/08/23 04:29:26;;;;;;;3.78;2.88;;;16.90;99.90;;;;;;2080293;28;20117;-71
2021/08/23 04:30:26;;;;;;;3.80;3.08;;;16.90;99.90;;;;;;2080402;28;20100;-72
2021/08/23 04:31:28;;;;;;;3.58;3.00;;;16.90;99.90;;;;;;2080483;28;20022;-71
2021/08/23 04:32:28;;;;;;;3.17;2.88;;;16.90;99.90;;;;;;2080487;28;20130;-72
2021/08/23 04:33:29;;;;;;;3.47;3.17;;;16.80;99.90;;;;;;2071666;28;20033;-72
2021/08/23 04:34:30;;;;;;;4.25;3.03;;;16.80;99.90;;;;;;2071750;28;20470;-72
2021/08/23 04:35:31;;;;;;;3.38;2.88;;;16.90;99.90;;;;;;2080480;28;20042;-71
2021/08/23 04:36:31;;;;;;;3.72;2.90;;;16.90;99.90;;;;;;2080506;28;20412;-72
2021/08/23 04:37:32;;;;;;;3.20;2.90;;;16.90;99.90;;;;;;2080142;28;20393;-72
2021/08/23 04:38:32;;;;;;;3.40;3.10;;;16.90;99.90;;;;;;2080566;28;20125;-71
2021/08/23 04:39:33;;;;;;;3.30;3.00;;;16.90;99.90;;;;;;2080283;28;20044;-72
2021/08/23 04:40:34;;;;;;;3.40;3.08;;;16.90;99.90;;;;;;2080481;28;20064;-72
2021/08/23 04:41:37;;;;;;;3.50;3.20;;;16.90;99.90;;;;;;2080252;28;20022;-72
2021/08/23 04:42:37;;;;;;;3.58;3.17;;;16.90;99.90;;;;;;2080363;28;20068;-72
2021/08/23 04:43:38;;;;;;;4.10;3.10;;;16.90;99.90;;;;;;2080485;28;20021;-72
2021/08/23 04:44:38;;;;;;;3.83;3.13;;;16.90;99.90;;;;;;2071482;28;20033;-72
2021/08/23 04:45:39;;;;;;;5.45;3.63;;;16.90;99.90;;;;;;2071728;28;20065;-72
2021/08/23 04:46:40;;;;;;;4.00;3.45;;;16.90;99.90;;;;;;2080434;28;20029;-71
2021/08/23 04:47:40;;;;;;;3.92;3.17;;;16.80;99.90;;;;;;2071093;28;20129;-72
2021/08/23 04:48:41;;;;;;;3.72;3.20;;;16.90;99.90;;;;;;2071343;28;20030;-72
2021/08/23 04:49:41;;;;;;;4.68;3.20;;;16.80;99.90;;;;;;2080290;28;20026;-71
2021/08/23 04:50:42;;;;;;;4.47;3.05;;;16.80;99.90;;;;;;2079998;28;20071;-72
2021/08/23 04:51:43;;;;;;;3.25;2.90;;;16.90;99.90;;;;;;2080160;28;20036;-72
2021/08/23 04:52:44;;;;;;;3.28;2.97;;;16.90;99.90;;;;;;2080413;28;20037;-72
2021/08/23 04:53:44;;;;;;;4.40;2.95;;;16.90;99.90;;;;;;2080287;28;20148;-72
2021/08/23 04:54:45;;;;;;;4.47;3.00;;;16.90;99.90;;;;;;2080267;28;20056;-72
2021/08/23 04:55:46;;;;;;;3.47;2.95;;;16.90;99.90;;;;;;2080331;28;20033;-72
2021/08/23 04:56:47;;;;;;;5.18;3.40;;;16.90;99.90;;;;;;2080294;28;20030;-72
2021/08/23 04:57:48;;;;;;;4.53;3.20;;;16.90;99.90;;;;;;2071016;28;20033;-72
2021/08/23 04:58:49;;;;;;;4.28;3.13;;;16.90;99.90;;;;;;2071374;28;20066;-72
2021/08/23 04:59:49;;;;;;;3.30;3.00;;;16.90;99.90;;;;;;2080348;28;20087;-72
2021/08/23 05:00:50;;;;;;;3.40;3.00;;;17.00;99.90;;;;;;2080280;28;20060;-72
2021/08/23 05:01:50;;;;;;;3.10;2.70;;;16.90;99.90;;;;;;2080360;28;20105;-72
2021/08/23 05:02:51;;;;;;;3.35;2.92;;;17.00;99.90;;;;;;2080345;28;20449;-72
2021/08/23 05:03:51;;;;;;;4.22;2.80;;;17.00;99.90;;;;;;2080067;28;20417;-72
2021/08/23 05:04:52;;;;;;;3.15;2.85;;;17.00;99.90;;;;;;2071530;28;20387;-72
2021/08/23 05:05:52;;;;;;;2.92;2.63;;;17.00;99.90;;;;;;2063456;28;20030;-72
2021/08/23 05:06:53;;;;;;;3.85;2.75;;;16.90;99.90;;;;;;2071691;28;20049;-72
2021/08/23 05:07:53;;;;;;;2.78;2.50;;;17.00;99.90;;;;;;2071116;28;20030;-72
2021/08/23 05:08:54;;;;;;;2.95;2.65;;;17.00;99.90;;;;;;2072872;28;20042;-72
2021/08/23 05:09:55;;;;;;;4.10;2.95;;;17.00;99.90;;;;;;2081734;28;20216;-71
2021/08/23 05:10:56;;;;;;;3.47;3.03;;;16.90;99.90;;;;;;2081841;28;20109;-72
2021/08/23 05:11:56;;;;;;;3.38;2.50;;;17.00;99.90;;;;;;2073295;28;20034;-72
2021/08/23 05:12:57;;;;;;;4.28;3.00;;;17.00;99.90;;;;;;2073161;28;20030;-72
2021/08/23 05:13:57;;;;;;;3.15;2.85;;;17.00;99.90;;;;;;2081893;28;20037;-72
2021/08/23 05:14:58;;;;;;;3.08;2.70;;;17.00;99.90;;;;;;2081930;28;20034;-72
2021/08/23 05:15:59;;;;;;;3.55;2.92;;;17.00;99.90;;;;;;2081799;28;20116;-72
2021/08/23 05:16:59;;;;;;;3.13;2.60;;;17.00;99.90;;;;;;2081665;28;20029;-72
2021/08/23 05:18:00;;;;;;;3.13;2.83;;;17.00;99.90;;;;;;2081497;28;20061;-72
2021/08/23 05:19:00;;;;;;;2.83;2.58;;;17.00;99.90;;;;;;2072787;28;20029;-72